sensor_id;sensor_type;location;lat;lon;timestamp;P1;durP1;ratioP1;P2;durP2;ratioP2
4517;SDS011;2271;49.464;11.070;2022-08-19T00:00:03;10.80;;;9.65;;
4517;SDS011;2271;49.464;11.070;2022-08-19T00:02:31;14.20;;;10.60;;
4517;SDS011;2271;49.464;11.070;2022-08-19T00:04:57;12.40;;;10.80;;
4517;SDS011;2271;49.464;11.070;2022-08-19T00:07:22;13.10;;;11.05;;
4517;SDS011;2271;49.464;11.070;2022-08-19T00:09:48;11.25;;;10.02;;
4517;SDS011;2271;49.464;11.070;2022-08-19T00:12:17;14.07;;;10.25;;
4517;SDS011;2271;49.464;11.070;2022-08-19T00:14:48;13.13;;;11.13;;
4517;SDS011;2271;49.464;11.070;2022-08-19T00:17:14;12.85;;;10.57;;
4517;SDS011;2271;49.464;11.070;2022-08-19T00:19:39;16.95;;;11.88;;
4517;SDS011;2271;49.464;11.070;2022-08-19T00:22:05;14.80;;;11.07;;
4517;SDS011;2271;49.464;11.070;2022-08-19T00:24:33;16.17;;;12.05;;
4517;SDS011;2271;49.464;11.070;2022-08-19T00:26:59;13.43;;;10.85;;
4517;SDS011;2271;49.464;11.070;2022-08-19T00:29:26;12.02;;;10.70;;
4517;SDS011;2271;49.464;11.070;2022-08-19T00:31:52;12.25;;;10.38;;
4517;SDS011;2271;49.464;11.070;2022-08-19T00:34:19;15.38;;;11.73;;
4517;SDS011;2271;49.464;11.070;2022-08-19T00:36:46;13.02;;;11.73;;
4517;SDS011;2271;49.464;11.070;2022-08-19T00:39:12;13.13;;;11.50;;
4517;SDS011;2271;49.464;11.070;2022-08-19T00:41:39;14.13;;;11.82;;
4517;SDS011;2271;49.464;11.070;2022-08-19T00:44:10;12.77;;;11.57;;
4517;SDS011;2271;49.464;11.070;2022-08-19T00:46:40;12.20;;;10.95;;
4517;SDS011;2271;49.464;11.070;2022-08-19T00:49:10;13.73;;;11.60;;
4517;SDS011;2271;49.464;11.070;2022-08-19T00:51:39;17.08;;;11.70;;
4517;SDS011;2271;49.464;11.070;2022-08-19T00:54:07;16.42;;;11.80;;
4517;SDS011;2271;49.464;11.070;2022-08-19T00:56:34;15.07;;;11.77;;
4517;SDS011;2271;49.464;11.070;2022-08-19T00:59:00;13.80;;;12.35;;
4517;SDS011;2271;49.464;11.070;2022-08-19T01:01:27;13.52;;;11.70;;
4517;SDS011;2271;49.464;11.070;2022-08-19T01:03:53;12.85;;;11.55;;
4517;SDS011;2271;49.464;11.070;2022-08-19T01:06:19;13.50;;;10.88;;
4517;SDS011;2271;49.464;11.070;2022-08-19T01:08:45;11.85;;;10.65;;
4517;SDS011;2271;49.464;11.070;2022-08-19T01:11:11;15.48;;;11.25;;
4517;SDS011;2271;49.464;11.070;2022-08-19T01:13:38;13.85;;;11.68;;
4517;SDS011;2271;49.464;11.070;2022-08-19T01:16:05;15.10;;;11.30;;
4517;SDS011;2271;49.464;11.070;2022-08-19T01:18:35;17.25;;;11.63;;
4517;SDS011;2271;49.464;11.070;2022-08-19T01:23:51;12.60;;;10.48;;
4517;SDS011;2271;49.464;11.070;2022-08-19T01:26:20;13.77;;;11.35;;
4517;SDS011;2271;49.464;11.070;2022-08-19T01:28:48;14.20;;;11.98;;
4517;SDS011;2271;49.464;11.070;2022-08-19T01:31:17;12.50;;;10.57;;
4517;SDS011;2271;49.464;11.070;2022-08-19T01:33:46;12.48;;;10.40;;
4517;SDS011;2271;49.464;11.070;2022-08-19T01:36:14;15.70;;;12.48;;
4517;SDS011;2271;49.464;11.070;2022-08-19T01:38:47;14.43;;;11.98;;
4517;SDS011;2271;49.464;11.070;2022-08-19T01:41:13;14.02;;;11.15;;
4517;SDS011;2271;49.464;11.070;2022-08-19T01:43:39;13.40;;;11.98;;
4517;SDS011;2271;49.464;11.070;2022-08-19T01:46:05;13.45;;;11.65;;
4517;SDS011;2271;49.464;11.070;2022-08-19T01:48:35;14.85;;;12.13;;
4517;SDS011;2271;49.464;11.070;2022-08-19T01:51:02;14.18;;;12.77;;
4517;SDS011;2271;49.464;11.070;2022-08-19T01:53:28;13.40;;;12.00;;
4517;SDS011;2271;49.464;11.070;2022-08-19T01:55:55;13.10;;;11.65;;
4517;SDS011;2271;49.464;11.070;2022-08-19T01:58:21;12.63;;;11.20;;
4517;SDS011;2271;49.464;11.070;2022-08-19T02:00:50;13.43;;;11.52;;
4517;SDS011;2271;49.464;11.070;2022-08-19T02:03:16;14.75;;;11.98;;
4517;SDS011;2271;49.464;11.070;2022-08-19T02:05:42;12.82;;;11.52;;
4517;SDS011;2271;49.464;11.070;2022-08-19T02:08:10;12.10;;;10.90;;
4517;SDS011;2271;49.464;11.070;2022-08-19T02:10:38;13.65;;;11.93;;
4517;SDS011;2271;49.464;11.070;2022-08-19T02:13:06;14.25;;;12.20;;
4517;SDS011;2271;49.464;11.070;2022-08-19T02:15:31;12.63;;;10.98;;
4517;SDS011;2271;49.464;11.070;2022-08-19T02:17:57;15.77;;;12.27;;
4517;SDS011;2271;49.464;11.070;2022-08-19T02:20:23;15.63;;;13.30;;
4517;SDS011;2271;49.464;11.070;2022-08-19T02:22:49;12.95;;;11.60;;
4517;SDS011;2271;49.464;11.070;2022-08-19T02:25:15;14.75;;;12.75;;
4517;SDS011;2271;49.464;11.070;2022-08-19T02:27:41;15.30;;;12.57;;
4517;SDS011;2271;49.464;11.070;2022-08-19T02:30:08;14.18;;;11.73;;
4517;SDS011;2271;49.464;11.070;2022-08-19T02:32:40;13.77;;;12.10;;
4517;SDS011;2271;49.464;11.070;2022-08-19T02:35:07;15.68;;;12.48;;
4517;SDS011;2271;49.464;11.070;2022-08-19T02:37:33;13.85;;;12.27;;
4517;SDS011;2271;49.464;11.070;2022-08-19T02:40:17;16.35;;;13.38;;
4517;SDS011;2271;49.464;11.070;2022-08-19T02:42:44;15.00;;;13.40;;
4517;SDS011;2271;49.464;11.070;2022-08-19T02:45:11;17.67;;;14.23;;
4517;SDS011;2271;49.464;11.070;2022-08-19T02:47:37;13.68;;;12.27;;
4517;SDS011;2271;49.464;11.070;2022-08-19T02:50:03;13.10;;;11.68;;
4517;SDS011;2271;49.464;11.070;2022-08-19T02:52:31;13.45;;;11.95;;
4517;SDS011;2271;49.464;11.070;2022-08-19T02:54:57;16.33;;;13.07;;
4517;SDS011;2271;49.464;11.070;2022-08-19T02:57:23;13.27;;;11.90;;
4517;SDS011;2271;49.464;11.070;2022-08-19T02:59:49;15.05;;;13.30;;
4517;SDS011;2271;49.464;11.070;2022-08-19T03:02:15;16.13;;;12.07;;
4517;SDS011;2271;49.464;11.070;2022-08-19T03:04:41;19.27;;;13.43;;
4517;SDS011;2271;49.464;11.070;2022-08-19T03:07:07;14.18;;;12.68;;
4517;SDS011;2271;49.464;11.070;2022-08-19T03:09:33;14.43;;;12.68;;
4517;SDS011;2271;49.464;11.070;2022-08-19T03:12:03;16.48;;;13.00;;
4517;SDS011;2271;49.464;11.070;2022-08-19T03:14:32;17.17;;;13.77;;
4517;SDS011;2271;49.464;11.070;2022-08-19T03:16:59;13.63;;;12.23;;
4517;SDS011;2271;49.464;11.070;2022-08-19T03:19:25;18.67;;;13.75;;
4517;SDS011;2271;49.464;11.070;2022-08-19T03:21:51;15.80;;;14.02;;
4517;SDS011;2271;49.464;11.070;2022-08-19T03:24:17;15.90;;;13.45;;
4517;SDS011;2271;49.464;11.070;2022-08-19T03:26:45;15.18;;;12.93;;
4517;SDS011;2271;49.464;11.070;2022-08-19T03:29:15;15.82;;;12.68;;
4517;SDS011;2271;49.464;11.070;2022-08-19T03:31:42;16.02;;;13.20;;
4517;SDS011;2271;49.464;11.070;2022-08-19T03:34:09;16.83;;;13.93;;
4517;SDS011;2271;49.464;11.070;2022-08-19T03:36:36;16.02;;;13.65;;
4517;SDS011;2271;49.464;11.070;2022-08-19T03:39:03;13.30;;;11.80;;
4517;SDS011;2271;49.464;11.070;2022-08-19T03:41:32;16.08;;;12.35;;
4517;SDS011;2271;49.464;11.070;2022-08-19T03:44:01;16.13;;;12.80;;
4517;SDS011;2271;49.464;11.070;2022-08-19T03:46:30;15.25;;;12.38;;
4517;SDS011;2271;49.464;11.070;2022-08-19T03:48:58;17.77;;;13.70;;
4517;SDS011;2271;49.464;11.070;2022-08-19T03:51:26;15.65;;;12.18;;
4517;SDS011;2271;49.464;11.070;2022-08-19T03:53:56;17.10;;;13.95;;
4517;SDS011;2271;49.464;11.070;2022-08-19T03:56:23;16.20;;;12.23;;
4517;SDS011;2271;49.464;11.070;2022-08-19T03:58:51;18.05;;;13.48;;
4517;SDS011;2271;49.464;11.070;2022-08-19T04:01:19;20.10;;;14.98;;
4517;SDS011;2271;49.464;11.070;2022-08-19T04:03:46;17.65;;;14.95;;
4517;SDS011;2271;49.464;11.070;2022-08-19T04:06:16;19.30;;;15.27;;
4517;SDS011;2271;49.464;11.070;2022-08-19T04:08:44;23.85;;;16.45;;
4517;SDS011;2271;49.464;11.070;2022-08-19T04:11:12;20.58;;;16.38;;
4517;SDS011;2271;49.464;11.070;2022-08-19T04:13:40;20.17;;;16.00;;
4517;SDS011;2271;49.464;11.070;2022-08-19T04:16:07;19.08;;;15.93;;
4517;SDS011;2271;49.464;11.070;2022-08-19T04:18:35;21.35;;;16.48;;
4517;SDS011;2271;49.464;11.070;2022-08-19T04:21:01;21.38;;;15.68;;
4517;SDS011;2271;49.464;11.070;2022-08-19T04:23:27;24.15;;;17.08;;
4517;SDS011;2271;49.464;11.070;2022-08-19T04:25:53;21.58;;;15.95;;
4517;SDS011;2271;49.464;11.070;2022-08-19T04:28:20;20.02;;;15.23;;
4517;SDS011;2271;49.464;11.070;2022-08-19T04:30:48;20.30;;;16.08;;
4517;SDS011;2271;49.464;11.070;2022-08-19T04:33:16;20.88;;;15.45;;
4517;SDS011;2271;49.464;11.070;2022-08-19T04:35:44;18.42;;;15.68;;
4517;SDS011;2271;49.464;11.070;2022-08-19T04:38:12;21.45;;;17.60;;
4517;SDS011;2271;49.464;11.070;2022-08-19T04:40:40;21.42;;;15.77;;
4517;SDS011;2271;49.464;11.070;2022-08-19T04:43:25;20.48;;;15.30;;
4517;SDS011;2271;49.464;11.070;2022-08-19T04:45:51;19.20;;;15.98;;
4517;SDS011;2271;49.464;11.070;2022-08-19T04:48:17;19.63;;;15.32;;
4517;SDS011;2271;49.464;11.070;2022-08-19T04:50:51;21.95;;;16.77;;
4517;SDS011;2271;49.464;11.070;2022-08-19T04:53:22;24.25;;;18.23;;
4517;SDS011;2271;49.464;11.070;2022-08-19T04:55:50;20.02;;;14.88;;
4517;SDS011;2271;49.464;11.070;2022-08-19T04:58:16;22.05;;;15.27;;
4517;SDS011;2271;49.464;11.070;2022-08-19T05:00:42;24.27;;;17.92;;
4517;SDS011;2271;49.464;11.070;2022-08-19T05:03:08;23.17;;;18.52;;
4517;SDS011;2271;49.464;11.070;2022-08-19T05:05:38;24.77;;;18.00;;
4517;SDS011;2271;49.464;11.070;2022-08-19T05:08:06;19.30;;;15.32;;
4517;SDS011;2271;49.464;11.070;2022-08-19T05:10:34;20.67;;;16.55;;
4517;SDS011;2271;49.464;11.070;2022-08-19T05:13:01;21.33;;;16.50;;
4517;SDS011;2271;49.464;11.070;2022-08-19T05:15:27;20.00;;;16.55;;
4517;SDS011;2271;49.464;11.070;2022-08-19T05:17:53;21.40;;;16.85;;
4517;SDS011;2271;49.464;11.070;2022-08-19T05:20:38;19.27;;;15.68;;
4517;SDS011;2271;49.464;11.070;2022-08-19T05:23:22;22.80;;;17.83;;
4517;SDS011;2271;49.464;11.070;2022-08-19T05:25:48;19.55;;;16.38;;
4517;SDS011;2271;49.464;11.070;2022-08-19T05:28:15;25.35;;;15.82;;
4517;SDS011;2271;49.464;11.070;2022-08-19T05:30:40;18.48;;;15.35;;
4517;SDS011;2271;49.464;11.070;2022-08-19T05:33:08;24.35;;;17.42;;
4517;SDS011;2271;49.464;11.070;2022-08-19T05:35:35;21.70;;;15.98;;
4517;SDS011;2271;49.464;11.070;2022-08-19T05:38:02;20.00;;;15.80;;
4517;SDS011;2271;49.464;11.070;2022-08-19T05:40:28;22.05;;;15.95;;
4517;SDS011;2271;49.464;11.070;2022-08-19T05:42:54;21.08;;;16.23;;
4517;SDS011;2271;49.464;11.070;2022-08-19T05:45:19;22.85;;;16.05;;
4517;SDS011;2271;49.464;11.070;2022-08-19T05:47:46;21.52;;;16.75;;
4517;SDS011;2271;49.464;11.070;2022-08-19T05:50:13;22.52;;;18.13;;
4517;SDS011;2271;49.464;11.070;2022-08-19T05:52:38;19.05;;;15.50;;
4517;SDS011;2271;49.464;11.070;2022-08-19T05:55:04;19.50;;;16.00;;
4517;SDS011;2271;49.464;11.070;2022-08-19T05:57:31;20.80;;;16.75;;
4517;SDS011;2271;49.464;11.070;2022-08-19T05:59:56;19.60;;;15.85;;
4517;SDS011;2271;49.464;11.070;2022-08-19T06:02:25;19.80;;;15.55;;
4517;SDS011;2271;49.464;11.070;2022-08-19T06:04:51;18.55;;;15.65;;
4517;SDS011;2271;49.464;11.070;2022-08-19T06:07:17;19.95;;;16.52;;
4517;SDS011;2271;49.464;11.070;2022-08-19T06:09:42;18.77;;;15.00;;
4517;SDS011;2271;49.464;11.070;2022-08-19T06:12:08;20.45;;;15.55;;
4517;SDS011;2271;49.464;11.070;2022-08-19T06:14:34;20.05;;;15.95;;
4517;SDS011;2271;49.464;11.070;2022-08-19T06:17:00;18.17;;;13.65;;
4517;SDS011;2271;49.464;11.070;2022-08-19T06:19:27;16.13;;;13.68;;
4517;SDS011;2271;49.464;11.070;2022-08-19T06:21:57;15.70;;;13.25;;
4517;SDS011;2271;49.464;11.070;2022-08-19T06:24:24;21.05;;;13.63;;
4517;SDS011;2271;49.464;11.070;2022-08-19T06:26:53;17.00;;;13.85;;
4517;SDS011;2271;49.464;11.070;2022-08-19T06:29:21;15.52;;;13.10;;
4517;SDS011;2271;49.464;11.070;2022-08-19T06:31:49;18.50;;;15.05;;
4517;SDS011;2271;49.464;11.070;2022-08-19T06:34:17;16.00;;;13.65;;
4517;SDS011;2271;49.464;11.070;2022-08-19T06:36:44;21.13;;;14.88;;
4517;SDS011;2271;49.464;11.070;2022-08-19T06:39:14;17.63;;;14.80;;
4517;SDS011;2271;49.464;11.070;2022-08-19T06:41:44;15.93;;;13.20;;
4517;SDS011;2271;49.464;11.070;2022-08-19T06:44:12;15.50;;;12.73;;
4517;SDS011;2271;49.464;11.070;2022-08-19T06:46:38;16.73;;;14.52;;
4517;SDS011;2271;49.464;11.070;2022-08-19T06:49:04;14.68;;;13.07;;
4517;SDS011;2271;49.464;11.070;2022-08-19T06:51:31;15.07;;;12.68;;
4517;SDS011;2271;49.464;11.070;2022-08-19T06:53:57;14.32;;;12.13;;
4517;SDS011;2271;49.464;11.070;2022-08-19T06:56:26;16.23;;;13.93;;
4517;SDS011;2271;49.464;11.070;2022-08-19T06:58:58;16.67;;;12.77;;
4517;SDS011;2271;49.464;11.070;2022-08-19T07:01:28;12.88;;;11.50;;
4517;SDS011;2271;49.464;11.070;2022-08-19T07:03:54;14.05;;;11.65;;
4517;SDS011;2271;49.464;11.070;2022-08-19T07:06:21;13.77;;;11.48;;
4517;SDS011;2271;49.464;11.070;2022-08-19T07:08:47;12.95;;;10.63;;
4517;SDS011;2271;49.464;11.070;2022-08-19T07:11:14;11.02;;;9.55;;
4517;SDS011;2271;49.464;11.070;2022-08-19T07:13:41;12.85;;;9.93;;
4517;SDS011;2271;49.464;11.070;2022-08-19T07:16:09;12.07;;;10.70;;
4517;SDS011;2271;49.464;11.070;2022-08-19T07:18:37;11.63;;;9.38;;
4517;SDS011;2271;49.464;11.070;2022-08-19T07:21:04;11.77;;;10.32;;
4517;SDS011;2271;49.464;11.070;2022-08-19T07:23:35;12.68;;;10.88;;
4517;SDS011;2271;49.464;11.070;2022-08-19T07:26:08;12.07;;;10.48;;
4517;SDS011;2271;49.464;11.070;2022-08-19T07:28:37;11.15;;;10.00;;
4517;SDS011;2271;49.464;11.070;2022-08-19T07:31:06;12.43;;;10.20;;
4517;SDS011;2271;49.464;11.070;2022-08-19T07:33:33;11.40;;;10.20;;
4517;SDS011;2271;49.464;11.070;2022-08-19T07:36:02;11.40;;;9.88;;
4517;SDS011;2271;49.464;11.070;2022-08-19T07:38:32;11.75;;;10.55;;
4517;SDS011;2271;49.464;11.070;2022-08-19T07:40:59;11.15;;;10.00;;
4517;SDS011;2271;49.464;11.070;2022-08-19T07:43:26;13.80;;;11.25;;
4517;SDS011;2271;49.464;11.070;2022-08-19T07:45:54;12.02;;;10.27;;
4517;SDS011;2271;49.464;11.070;2022-08-19T07:48:24;12.93;;;9.55;;
4517;SDS011;2271;49.464;11.070;2022-08-19T07:50:55;12.23;;;10.65;;
4517;SDS011;2271;49.464;11.070;2022-08-19T07:53:23;17.23;;;12.45;;
4517;SDS011;2271;49.464;11.070;2022-08-19T07:55:49;14.82;;;11.60;;
4517;SDS011;2271;49.464;11.070;2022-08-19T07:58:17;12.93;;;11.45;;
4517;SDS011;2271;49.464;11.070;2022-08-19T08:00:45;13.10;;;11.55;;
4517;SDS011;2271;49.464;11.070;2022-08-19T08:03:13;13.70;;;10.43;;
4517;SDS011;2271;49.464;11.070;2022-08-19T08:05:40;14.90;;;11.85;;
4517;SDS011;2271;49.464;11.070;2022-08-19T08:08:25;14.77;;;12.80;;
4517;SDS011;2271;49.464;11.070;2022-08-19T08:11:10;13.50;;;11.60;;
4517;SDS011;2271;49.464;11.070;2022-08-19T08:13:36;15.27;;;12.43;;
4517;SDS011;2271;49.464;11.070;2022-08-19T08:16:02;15.50;;;12.48;;
4517;SDS011;2271;49.464;11.070;2022-08-19T08:18:28;15.52;;;12.75;;
4517;SDS011;2271;49.464;11.070;2022-08-19T08:20:56;14.73;;;12.55;;
4517;SDS011;2271;49.464;11.070;2022-08-19T08:23:23;19.27;;;12.93;;
4517;SDS011;2271;49.464;11.070;2022-08-19T08:25:55;13.18;;;11.07;;
4517;SDS011;2271;49.464;11.070;2022-08-19T08:28:22;11.57;;;10.05;;
4517;SDS011;2271;49.464;11.070;2022-08-19T08:30:49;13.40;;;11.52;;
4517;SDS011;2271;49.464;11.070;2022-08-19T08:33:18;12.52;;;10.68;;
4517;SDS011;2271;49.464;11.070;2022-08-19T08:35:46;12.60;;;10.48;;
4517;SDS011;2271;49.464;11.070;2022-08-19T08:38:12;12.95;;;11.10;;
4517;SDS011;2271;49.464;11.070;2022-08-19T08:40:49;13.98;;;11.00;;
4517;SDS011;2271;49.464;11.070;2022-08-19T08:45:54;19.92;;;14.68;;
4517;SDS011;2271;49.464;11.070;2022-08-19T08:51:47;17.33;;;12.57;;
4517;SDS011;2271;49.464;11.070;2022-08-19T08:54:12;15.75;;;13.35;;
4517;SDS011;2271;49.464;11.070;2022-08-19T08:56:39;18.13;;;13.90;;
4517;SDS011;2271;49.464;11.070;2022-08-19T08:59:10;24.48;;;14.43;;
4517;SDS011;2271;49.464;11.070;2022-08-19T09:01:37;16.10;;;14.40;;
4517;SDS011;2271;49.464;11.070;2022-08-19T09:04:04;18.98;;;14.57;;
4517;SDS011;2271;49.464;11.070;2022-08-19T09:09:10;22.67;;;14.10;;
4517;SDS011;2271;49.464;11.070;2022-08-19T09:11:47;18.20;;;14.15;;
4517;SDS011;2271;49.464;11.070;2022-08-19T09:17:12;21.13;;;13.43;;
4517;SDS011;2271;49.464;11.070;2022-08-19T09:19:51;21.60;;;13.63;;
4517;SDS011;2271;49.464;11.070;2022-08-19T09:22:20;17.85;;;14.20;;
4517;SDS011;2271;49.464;11.070;2022-08-19T09:24:47;19.88;;;12.80;;
4517;SDS011;2271;49.464;11.070;2022-08-19T09:27:20;15.00;;;12.35;;
4517;SDS011;2271;49.464;11.070;2022-08-19T09:29:48;16.67;;;13.00;;
4517;SDS011;2271;49.464;11.070;2022-08-19T09:32:14;18.08;;;12.60;;
4517;SDS011;2271;49.464;11.070;2022-08-19T09:34:42;18.42;;;12.43;;
4517;SDS011;2271;49.464;11.070;2022-08-19T09:37:08;16.27;;;12.93;;
4517;SDS011;2271;49.464;11.070;2022-08-19T09:39:34;17.55;;;12.40;;
4517;SDS011;2271;49.464;11.070;2022-08-19T09:41:59;19.27;;;13.70;;
4517;SDS011;2271;49.464;11.070;2022-08-19T09:44:25;14.63;;;12.88;;
4517;SDS011;2271;49.464;11.070;2022-08-19T09:46:51;14.70;;;11.80;;
4517;SDS011;2271;49.464;11.070;2022-08-19T09:49:17;20.40;;;12.23;;
4517;SDS011;2271;49.464;11.070;2022-08-19T09:51:49;15.40;;;12.20;;
4517;SDS011;2271;49.464;11.070;2022-08-19T09:54:16;13.93;;;12.15;;
4517;SDS011;2271;49.464;11.070;2022-08-19T09:56:42;16.67;;;13.07;;
4517;SDS011;2271;49.464;11.070;2022-08-19T09:59:09;17.95;;;14.35;;
4517;SDS011;2271;49.464;11.070;2022-08-19T10:01:36;20.33;;;14.27;;
4517;SDS011;2271;49.464;11.070;2022-08-19T10:04:03;16.40;;;13.00;;
4517;SDS011;2271;49.464;11.070;2022-08-19T10:06:33;16.60;;;12.80;;
4517;SDS011;2271;49.464;11.070;2022-08-19T10:08:59;17.20;;;13.52;;
4517;SDS011;2271;49.464;11.070;2022-08-19T10:11:25;17.77;;;13.63;;
4517;SDS011;2271;49.464;11.070;2022-08-19T10:13:51;17.15;;;13.45;;
4517;SDS011;2271;49.464;11.070;2022-08-19T10:16:18;15.05;;;12.52;;
4517;SDS011;2271;49.464;11.070;2022-08-19T10:18:47;19.80;;;15.45;;
4517;SDS011;2271;49.464;11.070;2022-08-19T10:21:14;15.73;;;12.77;;
4517;SDS011;2271;49.464;11.070;2022-08-19T10:23:45;18.42;;;13.23;;
4517;SDS011;2271;49.464;11.070;2022-08-19T10:26:15;12.85;;;11.38;;
4517;SDS011;2271;49.464;11.070;2022-08-19T10:28:45;16.88;;;13.57;;
4517;SDS011;2271;49.464;11.070;2022-08-19T10:31:16;22.95;;;14.18;;
4517;SDS011;2271;49.464;11.070;2022-08-19T10:33:45;20.15;;;15.45;;
4517;SDS011;2271;49.464;11.070;2022-08-19T10:36:13;19.80;;;13.88;;
4517;SDS011;2271;49.464;11.070;2022-08-19T10:38:45;16.05;;;13.02;;
4517;SDS011;2271;49.464;11.070;2022-08-19T10:41:13;16.27;;;12.35;;
4517;SDS011;2271;49.464;11.070;2022-08-19T10:43:39;15.85;;;12.20;;
4517;SDS011;2271;49.464;11.070;2022-08-19T10:46:09;15.95;;;13.23;;
4517;SDS011;2271;49.464;11.070;2022-08-19T10:48:37;16.25;;;12.23;;
4517;SDS011;2271;49.464;11.070;2022-08-19T10:51:03;17.02;;;12.55;;
4517;SDS011;2271;49.464;11.070;2022-08-19T10:53:48;15.43;;;12.63;;
4517;SDS011;2271;49.464;11.070;2022-08-19T10:56:14;17.40;;;12.35;;
4517;SDS011;2271;49.464;11.070;2022-08-19T10:58:59;16.27;;;12.75;;
4517;SDS011;2271;49.464;11.070;2022-08-19T11:01:25;14.75;;;12.20;;
4517;SDS011;2271;49.464;11.070;2022-08-19T11:03:51;15.82;;;11.95;;
4517;SDS011;2271;49.464;11.070;2022-08-19T11:06:17;13.30;;;11.60;;
4517;SDS011;2271;49.464;11.070;2022-08-19T11:08:44;15.57;;;12.82;;
4517;SDS011;2271;49.464;11.070;2022-08-19T11:11:10;12.15;;;10.85;;
4517;SDS011;2271;49.464;11.070;2022-08-19T11:13:37;15.95;;;12.63;;
4517;SDS011;2271;49.464;11.070;2022-08-19T11:16:05;15.38;;;12.18;;
4517;SDS011;2271;49.464;11.070;2022-08-19T11:18:35;15.27;;;12.07;;
4517;SDS011;2271;49.464;11.070;2022-08-19T11:21:13;15.15;;;12.27;;
4517;SDS011;2271;49.464;11.070;2022-08-19T11:23:42;15.57;;;11.07;;
4517;SDS011;2271;49.464;11.070;2022-08-19T11:26:08;13.55;;;12.02;;
4517;SDS011;2271;49.464;11.070;2022-08-19T11:28:34;14.38;;;12.82;;
4517;SDS011;2271;49.464;11.070;2022-08-19T11:31:01;18.83;;;13.40;;
4517;SDS011;2271;49.464;11.070;2022-08-19T11:33:28;19.50;;;13.95;;
4517;SDS011;2271;49.464;11.070;2022-08-19T11:35:57;16.38;;;13.02;;
4517;SDS011;2271;49.464;11.070;2022-08-19T11:38:24;13.85;;;11.23;;
4517;SDS011;2271;49.464;11.070;2022-08-19T11:40:57;15.48;;;11.27;;
4517;SDS011;2271;49.464;11.070;2022-08-19T11:43:24;12.18;;;10.68;;
4517;SDS011;2271;49.464;11.070;2022-08-19T11:45:52;17.73;;;13.38;;
4517;SDS011;2271;49.464;11.070;2022-08-19T11:48:18;14.48;;;12.52;;
4517;SDS011;2271;49.464;11.070;2022-08-19T11:50:50;14.80;;;13.00;;
4517;SDS011;2271;49.464;11.070;2022-08-19T11:53:18;19.92;;;14.40;;
4517;SDS011;2271;49.464;11.070;2022-08-19T11:55:45;14.60;;;12.52;;
4517;SDS011;2271;49.464;11.070;2022-08-19T11:58:11;14.82;;;12.75;;
4517;SDS011;2271;49.464;11.070;2022-08-19T12:00:38;13.48;;;11.90;;
4517;SDS011;2271;49.464;11.070;2022-08-19T12:03:05;15.60;;;13.05;;
4517;SDS011;2271;49.464;11.070;2022-08-19T12:05:31;19.60;;;14.20;;
4517;SDS011;2271;49.464;11.070;2022-08-19T12:07:57;14.52;;;12.50;;
4517;SDS011;2271;49.464;11.070;2022-08-19T12:10:23;19.55;;;13.85;;
4517;SDS011;2271;49.464;11.070;2022-08-19T12:15:15;15.63;;;12.85;;
4517;SDS011;2271;49.464;11.070;2022-08-19T12:17:41;15.75;;;12.18;;
4517;SDS011;2271;49.464;11.070;2022-08-19T12:20:08;16.63;;;13.82;;
4517;SDS011;2271;49.464;11.070;2022-08-19T12:22:35;23.67;;;13.38;;
4517;SDS011;2271;49.464;11.070;2022-08-19T12:25:02;16.08;;;12.80;;
4517;SDS011;2271;49.464;11.070;2022-08-19T12:27:29;14.40;;;11.57;;
4517;SDS011;2271;49.464;11.070;2022-08-19T12:29:56;15.88;;;12.85;;
4517;SDS011;2271;49.464;11.070;2022-08-19T12:32:22;17.20;;;14.07;;
4517;SDS011;2271;49.464;11.070;2022-08-19T12:34:49;12.77;;;11.45;;
4517;SDS011;2271;49.464;11.070;2022-08-19T12:37:15;15.85;;;13.60;;
4517;SDS011;2271;49.464;11.070;2022-08-19T12:39:41;14.10;;;11.98;;
4517;SDS011;2271;49.464;11.070;2022-08-19T12:42:08;15.50;;;13.77;;
4517;SDS011;2271;49.464;11.070;2022-08-19T12:44:36;15.07;;;13.00;;
4517;SDS011;2271;49.464;11.070;2022-08-19T12:47:04;15.98;;;13.70;;
4517;SDS011;2271;49.464;11.070;2022-08-19T12:49:30;17.48;;;14.15;;
4517;SDS011;2271;49.464;11.070;2022-08-19T12:51:58;15.32;;;12.43;;
4517;SDS011;2271;49.464;11.070;2022-08-19T12:54:25;12.35;;;11.10;;
4517;SDS011;2271;49.464;11.070;2022-08-19T12:56:51;17.42;;;13.10;;
4517;SDS011;2271;49.464;11.070;2022-08-19T12:59:16;13.45;;;11.82;;
4517;SDS011;2271;49.464;11.070;2022-08-19T13:01:44;19.73;;;12.65;;
4517;SDS011;2271;49.464;11.070;2022-08-19T13:04:10;15.80;;;12.00;;
4517;SDS011;2271;49.464;11.070;2022-08-19T13:06:36;14.85;;;12.02;;
4517;SDS011;2271;49.464;11.070;2022-08-19T13:09:02;19.88;;;13.25;;
4517;SDS011;2271;49.464;11.070;2022-08-19T13:11:29;14.93;;;12.95;;
4517;SDS011;2271;49.464;11.070;2022-08-19T13:13:58;15.68;;;12.25;;
4517;SDS011;2271;49.464;11.070;2022-08-19T13:16:26;16.63;;;12.75;;
4517;SDS011;2271;49.464;11.070;2022-08-19T13:18:53;15.40;;;13.13;;
4517;SDS011;2271;49.464;11.070;2022-08-19T13:21:21;19.35;;;13.52;;
4517;SDS011;2271;49.464;11.070;2022-08-19T13:23:48;15.60;;;12.75;;
4517;SDS011;2271;49.464;11.070;2022-08-19T13:26:15;14.50;;;12.48;;
4517;SDS011;2271;49.464;11.070;2022-08-19T13:28:41;16.52;;;12.80;;
4517;SDS011;2271;49.464;11.070;2022-08-19T13:31:27;16.95;;;14.15;;
4517;SDS011;2271;49.464;11.070;2022-08-19T13:34:13;12.95;;;11.48;;
4517;SDS011;2271;49.464;11.070;2022-08-19T13:36:40;16.73;;;13.50;;
4517;SDS011;2271;49.464;11.070;2022-08-19T13:39:06;16.88;;;13.73;;
4517;SDS011;2271;49.464;11.070;2022-08-19T13:41:33;15.35;;;12.43;;
4517;SDS011;2271;49.464;11.070;2022-08-19T13:43:59;14.60;;;12.68;;
4517;SDS011;2271;49.464;11.070;2022-08-19T13:46:26;14.40;;;12.40;;
4517;SDS011;2271;49.464;11.070;2022-08-19T13:48:53;15.82;;;13.60;;
4517;SDS011;2271;49.464;11.070;2022-08-19T13:51:20;17.13;;;13.70;;
4517;SDS011;2271;49.464;11.070;2022-08-19T13:53:45;17.50;;;13.48;;
4517;SDS011;2271;49.464;11.070;2022-08-19T13:56:12;15.00;;;12.80;;
4517;SDS011;2271;49.464;11.070;2022-08-19T13:58:40;16.27;;;13.85;;
4517;SDS011;2271;49.464;11.070;2022-08-19T14:01:06;14.45;;;12.90;;
4517;SDS011;2271;49.464;11.070;2022-08-19T14:03:33;14.48;;;12.85;;
4517;SDS011;2271;49.464;11.070;2022-08-19T14:05:59;13.82;;;10.90;;
4517;SDS011;2271;49.464;11.070;2022-08-19T14:08:25;12.02;;;10.65;;
4517;SDS011;2271;49.464;11.070;2022-08-19T14:10:52;15.30;;;10.93;;
4517;SDS011;2271;49.464;11.070;2022-08-19T14:13:19;24.20;;;15.13;;
4517;SDS011;2271;49.464;11.070;2022-08-19T14:15:47;14.30;;;12.80;;
4517;SDS011;2271;49.464;11.070;2022-08-19T14:18:13;13.20;;;11.75;;
4517;SDS011;2271;49.464;11.070;2022-08-19T14:20:39;13.73;;;11.38;;
4517;SDS011;2271;49.464;11.070;2022-08-19T14:23:05;12.80;;;10.40;;
4517;SDS011;2271;49.464;11.070;2022-08-19T14:25:31;21.30;;;10.35;;
4517;SDS011;2271;49.464;11.070;2022-08-19T14:27:58;13.82;;;10.13;;
4517;SDS011;2271;49.464;11.070;2022-08-19T14:30:25;14.48;;;9.45;;
4517;SDS011;2271;49.464;11.070;2022-08-19T14:32:57;12.70;;;8.45;;
4517;SDS011;2271;49.464;11.070;2022-08-19T14:35:25;10.95;;;8.35;;
4517;SDS011;2271;49.464;11.070;2022-08-19T14:37:52;9.88;;;8.35;;
4517;SDS011;2271;49.464;11.070;2022-08-19T14:40:21;13.43;;;8.23;;
4517;SDS011;2271;49.464;11.070;2022-08-19T14:42:50;10.52;;;7.47;;
4517;SDS011;2271;49.464;11.070;2022-08-19T14:45:24;12.23;;;8.05;;
4517;SDS011;2271;49.464;11.070;2022-08-19T14:47:51;10.52;;;7.63;;
4517;SDS011;2271;49.464;11.070;2022-08-19T14:50:17;10.02;;;7.32;;
4517;SDS011;2271;49.464;11.070;2022-08-19T14:52:46;8.00;;;6.88;;
4517;SDS011;2271;49.464;11.070;2022-08-19T14:55:13;9.27;;;7.13;;